sensor_id;sensor_type;location;lat;lon;timestamp;pressure;altitude;pressure_sealevel;temperature
70050;BMP180;57391;51.306;22.680;2022-10-22T00:00:01;99575.00;;;9.80
70050;BMP180;57391;51.306;22.680;2022-10-22T00:02:28;99570.80;;;9.80
70050;BMP180;57391;51.306;22.680;2022-10-22T00:04:55;99576.40;;;9.80
70050;BMP180;57391;51.306;22.680;2022-10-22T00:07:23;99576.20;;;9.70
70050;BMP180;57391;51.306;22.680;2022-10-22T00:09:50;99573.60;;;9.70
70050;BMP180;57391;51.306;22.680;2022-10-22T00:12:18;99574.00;;;9.60
70050;BMP180;57391;51.306;22.680;2022-10-22T00:14:46;99572.40;;;9.60
70050;BMP180;57391;51.306;22.680;2022-10-22T00:17:13;99569.40;;;9.58
70050;BMP180;57391;51.306;22.680;2022-10-22T00:19:41;99568.80;;;9.50
70050;BMP180;57391;51.306;22.680;2022-10-22T00:22:09;99573.40;;;9.50
70050;BMP180;57391;51.306;22.680;2022-10-22T00:24:38;99570.00;;;9.48
70050;BMP180;57391;51.306;22.680;2022-10-22T00:27:08;99570.40;;;9.40
70050;BMP180;57391;51.306;22.680;2022-10-22T00:29:35;99568.00;;;9.40
70050;BMP180;57391;51.306;22.680;2022-10-22T00:32:04;99558.00;;;9.40
70050;BMP180;57391;51.306;22.680;2022-10-22T00:34:32;99550.40;;;9.30
70050;BMP180;57391;51.306;22.680;2022-10-22T00:37:00;99541.80;;;9.30
70050;BMP180;57391;51.306;22.680;2022-10-22T00:39:28;99538.00;;;9.30
70050;BMP180;57391;51.306;22.680;2022-10-22T00:41:57;99534.00;;;9.30
70050;BMP180;57391;51.306;22.680;2022-10-22T00:53:48;99518.40;;;9.20
70050;BMP180;57391;51.306;22.680;2022-10-22T00:56:18;99520.60;;;9.20
70050;BMP180;57391;51.306;22.680;2022-10-22T00:58:55;99519.00;;;9.20
70050;BMP180;57391;51.306;22.680;2022-10-22T01:01:28;99518.80;;;9.20
70050;BMP180;57391;51.306;22.680;2022-10-22T01:03:55;99513.80;;;9.20
70050;BMP180;57391;51.306;22.680;2022-10-22T01:06:30;99508.00;;;9.20
70050;BMP180;57391;51.306;22.680;2022-10-22T01:14:51;99508.80;;;9.26
70050;BMP180;57391;51.306;22.680;2022-10-22T01:17:41;99508.20;;;9.24
70050;BMP180;57391;51.306;22.680;2022-10-22T01:29:58;99508.80;;;9.20
70050;BMP180;57391;51.306;22.680;2022-10-22T01:32:30;99505.20;;;9.20
70050;BMP180;57391;51.306;22.680;2022-10-22T01:35:07;99501.60;;;9.20
70050;BMP180;57391;51.306;22.680;2022-10-22T01:37:47;99494.80;;;9.20
70050;BMP180;57391;51.306;22.680;2022-10-22T01:40:15;99494.60;;;9.20
70050;BMP180;57391;51.306;22.680;2022-10-22T01:43:03;99488.00;;;9.22
70050;BMP180;57391;51.306;22.680;2022-10-22T01:45:42;99483.40;;;9.26
70050;BMP180;57391;51.306;22.680;2022-10-22T01:57:41;99478.60;;;9.20
70050;BMP180;57391;51.306;22.680;2022-10-22T02:00:12;99484.80;;;9.20
70050;BMP180;57391;51.306;22.680;2022-10-22T02:02:55;99481.60;;;9.20
70050;BMP180;57391;51.306;22.680;2022-10-22T02:05:46;99481.20;;;9.22
70050;BMP180;57391;51.306;22.680;2022-10-22T02:08:19;99480.20;;;9.28
70050;BMP180;57391;51.306;22.680;2022-10-22T02:10:49;99477.00;;;9.30
70050;BMP180;57391;51.306;22.680;2022-10-22T02:13:48;99483.80;;;9.30
70050;BMP180;57391;51.306;22.680;2022-10-22T02:16:31;99485.60;;;9.30
70050;BMP180;57391;51.306;22.680;2022-10-22T02:19:10;99479.40;;;9.30
70050;BMP180;57391;51.306;22.680;2022-10-22T02:21:41;99477.80;;;9.30
70050;BMP180;57391;51.306;22.680;2022-10-22T02:24:09;99469.40;;;9.30
70050;BMP180;57391;51.306;22.680;2022-10-22T02:26:53;99467.20;;;9.30
70050;BMP180;57391;51.306;22.680;2022-10-22T02:29:42;99472.20;;;9.38
70050;BMP180;57391;51.306;22.680;2022-10-22T02:32:20;99465.80;;;9.40
70050;BMP180;57391;51.306;22.680;2022-10-22T02:34:48;99469.20;;;9.40
70050;BMP180;57391;51.306;22.680;2022-10-22T02:37:18;99469.80;;;9.40
70050;BMP180;57391;51.306;22.680;2022-10-22T02:39:46;99463.40;;;9.40
70050;BMP180;57391;51.306;22.680;2022-10-22T02:42:14;99461.00;;;9.42
70050;BMP180;57391;51.306;22.680;2022-10-22T02:44:41;99461.60;;;9.50
70050;BMP180;57391;51.306;22.680;2022-10-22T02:47:08;99457.00;;;9.50
70050;BMP180;57391;51.306;22.680;2022-10-22T02:49:35;99452.00;;;9.50
70050;BMP180;57391;51.306;22.680;2022-10-22T02:52:03;99444.20;;;9.52
70050;BMP180;57391;51.306;22.680;2022-10-22T02:54:30;99448.00;;;9.60
70050;BMP180;57391;51.306;22.680;2022-10-22T02:56:57;99440.00;;;9.60
70050;BMP180;57391;51.306;22.680;2022-10-22T02:59:24;99430.40;;;9.60
70050;BMP180;57391;51.306;22.680;2022-10-22T03:01:51;99427.20;;;9.66
70050;BMP180;57391;51.306;22.680;2022-10-22T03:04:19;99431.40;;;9.70
70050;BMP180;57391;51.306;22.680;2022-10-22T03:06:46;99429.60;;;9.70
70050;BMP180;57391;51.306;22.680;2022-10-22T03:09:14;99435.00;;;9.70
70050;BMP180;57391;51.306;22.680;2022-10-22T03:11:41;99435.20;;;9.80
70050;BMP180;57391;51.306;22.680;2022-10-22T03:14:08;99431.20;;;9.80
70050;BMP180;57391;51.306;22.680;2022-10-22T03:16:35;99427.20;;;9.80
70050;BMP180;57391;51.306;22.680;2022-10-22T03:19:03;99423.80;;;9.80
70050;BMP180;57391;51.306;22.680;2022-10-22T03:21:52;99415.40;;;9.90
70050;BMP180;57391;51.306;22.680;2022-10-22T03:24:39;99422.20;;;9.90
70050;BMP180;57391;51.306;22.680;2022-10-22T03:27:08;99416.60;;;9.90
70050;BMP180;57391;51.306;22.680;2022-10-22T03:29:38;99422.40;;;9.90
70050;BMP180;57391;51.306;22.680;2022-10-22T03:32:06;99424.60;;;9.90
70050;BMP180;57391;51.306;22.680;2022-10-22T03:34:33;99417.40;;;9.90
70050;BMP180;57391;51.306;22.680;2022-10-22T03:37:01;99410.80;;;9.90
70050;BMP180;57391;51.306;22.680;2022-10-22T03:39:32;99420.60;;;9.90
70050;BMP180;57391;51.306;22.680;2022-10-22T03:42:02;99419.20;;;9.90
70050;BMP180;57391;51.306;22.680;2022-10-22T03:44:30;99421.20;;;9.90
70050;BMP180;57391;51.306;22.680;2022-10-22T03:46:58;99418.00;;;9.90
70050;BMP180;57391;51.306;22.680;2022-10-22T03:49:25;99424.20;;;9.90
70050;BMP180;57391;51.306;22.680;2022-10-22T03:51:52;99423.00;;;9.90
70050;BMP180;57391;51.306;22.680;2022-10-22T03:54:19;99420.40;;;9.90
70050;BMP180;57391;51.306;22.680;2022-10-22T03:56:46;99415.80;;;9.90
70050;BMP180;57391;51.306;22.680;2022-10-22T03:59:13;99408.00;;;9.90
70050;BMP180;57391;51.306;22.680;2022-10-22T04:01:41;99408.80;;;9.96
70050;BMP180;57391;51.306;22.680;2022-10-22T04:04:08;99396.80;;;10.00
70050;BMP180;57391;51.306;22.680;2022-10-22T04:06:35;99397.20;;;10.00
70050;BMP180;57391;51.306;22.680;2022-10-22T04:09:02;99400.60;;;10.00
70050;BMP180;57391;51.306;22.680;2022-10-22T04:11:29;99397.20;;;10.00
70050;BMP180;57391;51.306;22.680;2022-10-22T04:13:56;99400.60;;;10.00
70050;BMP180;57391;51.306;22.680;2022-10-22T04:16:23;99400.80;;;10.00
70050;BMP180;57391;51.306;22.680;2022-10-22T04:18:57;99397.00;;;10.04
70050;BMP180;57391;51.306;22.680;2022-10-22T04:21:24;99405.40;;;10.10
70050;BMP180;57391;51.306;22.680;2022-10-22T04:23:52;99412.40;;;10.10
70050;BMP180;57391;51.306;22.680;2022-10-22T04:26:19;99411.40;;;10.10
70050;BMP180;57391;51.306;22.680;2022-10-22T04:28:49;99410.40;;;10.10
70050;BMP180;57391;51.306;22.680;2022-10-22T04:31:21;99406.80;;;10.10
70050;BMP180;57391;51.306;22.680;2022-10-22T04:33:55;99405.80;;;10.10
70050;BMP180;57391;51.306;22.680;2022-10-22T04:36:23;99403.00;;;10.10
70050;BMP180;57391;51.306;22.680;2022-10-22T04:38:57;99410.20;;;10.10
70050;BMP180;57391;51.306;22.680;2022-10-22T04:41:37;99410.40;;;10.10
70050;BMP180;57391;51.306;22.680;2022-10-22T04:44:06;99398.20;;;10.12
70050;BMP180;57391;51.306;22.680;2022-10-22T04:46:35;99388.20;;;10.12
70050;BMP180;57391;51.306;22.680;2022-10-22T04:49:03;99370.60;;;10.10
70050;BMP180;57391;51.306;22.680;2022-10-22T04:51:31;99374.40;;;10.10
70050;BMP180;57391;51.306;22.680;2022-10-22T04:53:58;99388.60;;;10.10
70050;BMP180;57391;51.306;22.680;2022-10-22T04:56:30;99380.60;;;10.10
70050;BMP180;57391;51.306;22.680;2022-10-22T04:59:04;99367.80;;;10.12
70050;BMP180;57391;51.306;22.680;2022-10-22T05:01:35;99372.00;;;10.12
70050;BMP180;57391;51.306;22.680;2022-10-22T05:04:06;99369.20;;;10.10
70050;BMP180;57391;51.306;22.680;2022-10-22T05:06:35;99373.20;;;10.10
70050;BMP180;57391;51.306;22.680;2022-10-22T05:09:06;99378.80;;;10.10
70050;BMP180;57391;51.306;22.680;2022-10-22T05:11:39;99384.80;;;10.08
70050;BMP180;57391;51.306;22.680;2022-10-22T05:14:22;99388.40;;;10.00
70050;BMP180;57391;51.306;22.680;2022-10-22T05:16:51;99395.20;;;9.90
70050;BMP180;57391;51.306;22.680;2022-10-22T05:19:25;99399.60;;;9.90
70050;BMP180;57391;51.306;22.680;2022-10-22T05:21:56;99403.00;;;9.80
70050;BMP180;57391;51.306;22.680;2022-10-22T05:24:26;99395.60;;;9.76
70050;BMP180;57391;51.306;22.680;2022-10-22T05:26:56;99396.60;;;9.70
70050;BMP180;57391;51.306;22.680;2022-10-22T05:29:24;99400.80;;;9.70
70050;BMP180;57391;51.306;22.680;2022-10-22T05:31:52;99401.80;;;9.66
70050;BMP180;57391;51.306;22.680;2022-10-22T05:34:19;99399.80;;;9.70
70050;BMP180;57391;51.306;22.680;2022-10-22T05:36:46;99401.60;;;9.70
70050;BMP180;57391;51.306;22.680;2022-10-22T05:39:14;99399.80;;;9.80
70050;BMP180;57391;51.306;22.680;2022-10-22T05:41:42;99400.00;;;10.10
70050;BMP180;57391;51.306;22.680;2022-10-22T05:44:11;99395.40;;;10.30
70050;BMP180;57391;51.306;22.680;2022-10-22T05:46:39;99393.20;;;10.50
70050;BMP180;57391;51.306;22.680;2022-10-22T05:49:06;99396.60;;;10.80
70050;BMP180;57391;51.306;22.680;2022-10-22T05:51:35;99396.80;;;11.12
70050;BMP180;57391;51.306;22.680;2022-10-22T05:54:06;99397.20;;;11.40
70050;BMP180;57391;51.306;22.680;2022-10-22T05:56:35;99411.40;;;11.68
70050;BMP180;57391;51.306;22.680;2022-10-22T05:59:03;99411.40;;;11.90
70050;BMP180;57391;51.306;22.680;2022-10-22T06:01:33;99417.40;;;12.00
70050;BMP180;57391;51.306;22.680;2022-10-22T06:04:07;99423.80;;;12.00
70050;BMP180;57391;51.306;22.680;2022-10-22T06:06:44;99423.20;;;12.00
70050;BMP180;57391;51.306;22.680;2022-10-22T06:09:33;99420.00;;;11.90
70050;BMP180;57391;51.306;22.680;2022-10-22T06:12:02;99413.40;;;11.80
70050;BMP180;57391;51.306;22.680;2022-10-22T06:14:29;99418.00;;;11.70
70050;BMP180;57391;51.306;22.680;2022-10-22T06:16:59;99419.00;;;11.64
70050;BMP180;57391;51.306;22.680;2022-10-22T06:19:27;99415.60;;;11.58
70050;BMP180;57391;51.306;22.680;2022-10-22T06:21:55;99411.80;;;11.50
70050;BMP180;57391;51.306;22.680;2022-10-22T06:24:22;99415.00;;;11.40
70050;BMP180;57391;51.306;22.680;2022-10-22T06:26:52;99417.60;;;11.40
70050;BMP180;57391;51.306;22.680;2022-10-22T06:29:20;99426.60;;;11.40
70050;BMP180;57391;51.306;22.680;2022-10-22T06:31:48;99427.20;;;11.32
70050;BMP180;57391;51.306;22.680;2022-10-22T06:34:16;99423.00;;;11.30
70050;BMP180;57391;51.306;22.680;2022-10-22T06:36:46;99420.40;;;11.30
70050;BMP180;57391;51.306;22.680;2022-10-22T06:39:16;99419.20;;;11.30
70050;BMP180;57391;51.306;22.680;2022-10-22T06:41:44;99419.00;;;11.30
70050;BMP180;57391;51.306;22.680;2022-10-22T06:44:16;99419.80;;;11.56
70050;BMP180;57391;51.306;22.680;2022-10-22T06:46:44;99425.20;;;11.82
70050;BMP180;57391;51.306;22.680;2022-10-22T06:49:14;99433.60;;;12.00
70050;BMP180;57391;51.306;22.680;2022-10-22T06:51:42;99443.80;;;12.10
70050;BMP180;57391;51.306;22.680;2022-10-22T06:54:10;99448.60;;;12.10
70050;BMP180;57391;51.306;22.680;2022-10-22T06:56:37;99444.80;;;12.18
70050;BMP180;57391;51.306;22.680;2022-10-22T06:59:05;99444.60;;;12.30
70050;BMP180;57391;51.306;22.680;2022-10-22T07:01:35;99439.00;;;12.40
70050;BMP180;57391;51.306;22.680;2022-10-22T07:04:03;99432.00;;;12.42
70050;BMP180;57391;51.306;22.680;2022-10-22T07:06:31;99434.00;;;12.50
70050;BMP180;57391;51.306;22.680;2022-10-22T07:08:59;99430.60;;;12.40
70050;BMP180;57391;51.306;22.680;2022-10-22T07:11:44;99434.80;;;12.50
70050;BMP180;57391;51.306;22.680;2022-10-22T07:14:13;99437.00;;;12.88
70050;BMP180;57391;51.306;22.680;2022-10-22T07:16:40;99431.80;;;13.36
70050;BMP180;57391;51.306;22.680;2022-10-22T07:19:13;99432.40;;;13.70
70050;BMP180;57391;51.306;22.680;2022-10-22T07:21:40;99433.60;;;13.80
70050;BMP180;57391;51.306;22.680;2022-10-22T07:24:08;99427.60;;;13.80
70050;BMP180;57391;51.306;22.680;2022-10-22T07:26:35;99415.80;;;13.80
70050;BMP180;57391;51.306;22.680;2022-10-22T07:29:03;99418.20;;;13.80
70050;BMP180;57391;51.306;22.680;2022-10-22T07:31:31;99427.60;;;13.80
70050;BMP180;57391;51.306;22.680;2022-10-22T07:33:58;99435.80;;;13.70
70050;BMP180;57391;51.306;22.680;2022-10-22T07:36:25;99440.20;;;13.70
70050;BMP180;57391;51.306;22.680;2022-10-22T07:38:56;99429.60;;;13.60
70050;BMP180;57391;51.306;22.680;2022-10-22T07:41:25;99427.80;;;13.60
70050;BMP180;57391;51.306;22.680;2022-10-22T07:43:53;99424.60;;;13.70
70050;BMP180;57391;51.306;22.680;2022-10-22T07:46:20;99435.40;;;13.80
70050;BMP180;57391;51.306;22.680;2022-10-22T07:48:47;99442.60;;;13.90
70050;BMP180;57391;51.306;22.680;2022-10-22T07:51:15;99453.60;;;13.90
70050;BMP180;57391;51.306;22.680;2022-10-22T07:53:42;99448.40;;;13.90
70050;BMP180;57391;51.306;22.680;2022-10-22T07:56:12;99431.20;;;14.00
70050;BMP180;57391;51.306;22.680;2022-10-22T07:58:40;99434.60;;;14.00
70050;BMP180;57391;51.306;22.680;2022-10-22T08:01:07;99435.60;;;14.10
70050;BMP180;57391;51.306;22.680;2022-10-22T08:03:34;99437.00;;;14.12
70050;BMP180;57391;51.306;22.680;2022-10-22T08:06:02;99434.60;;;14.14
70050;BMP180;57391;51.306;22.680;2022-10-22T08:08:29;99443.00;;;14.14
70050;BMP180;57391;51.306;22.680;2022-10-22T08:10:59;99448.60;;;14.10
70050;BMP180;57391;51.306;22.680;2022-10-22T08:13:27;99448.40;;;14.10
70050;BMP180;57391;51.306;22.680;2022-10-22T08:15:59;99438.80;;;14.12
70050;BMP180;57391;51.306;22.680;2022-10-22T08:18:28;99437.60;;;14.30
70050;BMP180;57391;51.306;22.680;2022-10-22T08:20:56;99421.40;;;14.50
70050;BMP180;57391;51.306;22.680;2022-10-22T08:23:24;99413.80;;;14.80
70050;BMP180;57391;51.306;22.680;2022-10-22T08:25:52;99416.80;;;15.02
70050;BMP180;57391;51.306;22.680;2022-10-22T08:28:19;99421.40;;;15.20
70050;BMP180;57391;51.306;22.680;2022-10-22T08:30:46;99417.20;;;15.30
70050;BMP180;57391;51.306;22.680;2022-10-22T08:33:14;99417.20;;;15.30
70050;BMP180;57391;51.306;22.680;2022-10-22T08:35:41;99436.40;;;15.40
70050;BMP180;57391;51.306;22.680;2022-10-22T08:38:13;99433.40;;;15.60
70050;BMP180;57391;51.306;22.680;2022-10-22T08:40:42;99437.60;;;15.84
70050;BMP180;57391;51.306;22.680;2022-10-22T08:49:03;99461.40;;;16.50
70050;BMP180;57391;51.306;22.680;2022-10-22T08:51:36;99465.60;;;16.40
70050;BMP180;57391;51.306;22.680;2022-10-22T08:59:59;99456.00;;;16.10
70050;BMP180;57391;51.306;22.680;2022-10-22T09:02:36;99463.40;;;16.10
70050;BMP180;57391;51.306;22.680;2022-10-22T09:05:26;99471.00;;;16.10
70050;BMP180;57391;51.306;22.680;2022-10-22T09:07:56;99467.40;;;16.10
70050;BMP180;57391;51.306;22.680;2022-10-22T09:10:28;99467.60;;;16.00
70050;BMP180;57391;51.306;22.680;2022-10-22T09:12:57;99467.40;;;15.90
70050;BMP180;57391;51.306;22.680;2022-10-22T09:15:24;99463.60;;;15.80
70050;BMP180;57391;51.306;22.680;2022-10-22T09:18:27;99469.20;;;15.72
70050;BMP180;57391;51.306;22.680;2022-10-22T09:21:26;99479.80;;;15.60
70050;BMP180;57391;51.306;22.680;2022-10-22T09:26:40;99482.00;;;15.60
70050;BMP180;57391;51.306;22.680;2022-10-22T09:29:18;99487.00;;;15.60
70050;BMP180;57391;51.306;22.680;2022-10-22T09:31:46;99490.20;;;15.60
70050;BMP180;57391;51.306;22.680;2022-10-22T09:34:19;99474.20;;;15.50
70050;BMP180;57391;51.306;22.680;2022-10-22T09:36:47;99460.40;;;15.50
70050;BMP180;57391;51.306;22.680;2022-10-22T09:39:27;99457.40;;;15.50
70050;BMP180;57391;51.306;22.680;2022-10-22T09:41:55;99458.60;;;15.50
70050;BMP180;57391;51.306;22.680;2022-10-22T09:44:23;99457.20;;;15.50
70050;BMP180;57391;51.306;22.680;2022-10-22T09:46:50;99466.40;;;15.40
70050;BMP180;57391;51.306;22.680;2022-10-22T09:49:21;99466.40;;;15.40
70050;BMP180;57391;51.306;22.680;2022-10-22T09:51:59;99473.20;;;15.40
70050;BMP180;57391;51.306;22.680;2022-10-22T09:57:05;99460.60;;;15.30
70050;BMP180;57391;51.306;22.680;2022-10-22T09:59:42;99452.40;;;15.30
70050;BMP180;57391;51.306;22.680;2022-10-22T10:02:18;99454.80;;;15.30
70050;BMP180;57391;51.306;22.680;2022-10-22T10:04:50;99456.60;;;15.28
70050;BMP180;57391;51.306;22.680;2022-10-22T10:07:29;99448.00;;;15.20
70050;BMP180;57391;51.306;22.680;2022-10-22T10:09:57;99445.20;;;15.10
70050;BMP180;57391;51.306;22.680;2022-10-22T10:18:53;99449.20;;;15.06
70050;BMP180;57391;51.306;22.680;2022-10-22T10:21:47;99446.80;;;15.06
70050;BMP180;57391;51.306;22.680;2022-10-22T10:30:21;99433.20;;;15.10
70050;BMP180;57391;51.306;22.680;2022-10-22T10:33:14;99429.60;;;15.20
70050;BMP180;57391;51.306;22.680;2022-10-22T10:38:36;99438.00;;;15.20
70050;BMP180;57391;51.306;22.680;2022-10-22T10:44:24;99456.80;;;15.30
70050;BMP180;57391;51.306;22.680;2022-10-22T10:47:42;99457.80;;;15.30
70050;BMP180;57391;51.306;22.680;2022-10-22T10:56:44;99451.40;;;15.44
70050;BMP180;57391;51.306;22.680;2022-10-22T11:02:16;99448.40;;;15.50
70050;BMP180;57391;51.306;22.680;2022-10-22T11:07:57;99447.80;;;15.50
70050;BMP180;57391;51.306;22.680;2022-10-22T11:13:38;99448.60;;;15.50
70050;BMP180;57391;51.306;22.680;2022-10-22T11:19:11;99447.40;;;15.50
70050;BMP180;57391;51.306;22.680;2022-10-22T11:21:53;99449.00;;;15.50
70050;BMP180;57391;51.306;22.680;2022-10-22T11:24:34;99443.40;;;15.50
70050;BMP180;57391;51.306;22.680;2022-10-22T11:27:32;99443.40;;;15.50
70050;BMP180;57391;51.306;22.680;2022-10-22T11:30:17;99444.00;;;15.50
70050;BMP180;57391;51.306;22.680;2022-10-22T11:32:58;99435.60;;;15.50
70050;BMP180;57391;51.306;22.680;2022-10-22T11:35:33;99434.80;;;15.58
70050;BMP180;57391;51.306;22.680;2022-10-22T11:38:05;99444.00;;;15.60
70050;BMP180;57391;51.306;22.680;2022-10-22T11:41:01;99440.00;;;15.60
70050;BMP180;57391;51.306;22.680;2022-10-22T11:43:56;99433.00;;;15.60
70050;BMP180;57391;51.306;22.680;2022-10-22T11:47:07;99426.80;;;15.60
70050;BMP180;57391;51.306;22.680;2022-10-22T11:49:55;99425.40;;;15.60
70050;BMP180;57391;51.306;22.680;2022-10-22T11:52:36;99423.60;;;15.60
70050;BMP180;57391;51.306;22.680;2022-10-22T11:55:46;99424.80;;;15.60
70050;BMP180;57391;51.306;22.680;2022-10-22T12:03:47;99420.60;;;15.70
70050;BMP180;57391;51.306;22.680;2022-10-22T12:11:40;99417.40;;;15.70
70050;BMP180;57391;51.306;22.680;2022-10-22T12:14:25;99418.00;;;15.70
70050;BMP180;57391;51.306;22.680;2022-10-22T12:16:58;99419.40;;;15.62
70050;BMP180;57391;51.306;22.680;2022-10-22T12:19:46;99420.20;;;15.60
70050;BMP180;57391;51.306;22.680;2022-10-22T12:22:27;99419.40;;;15.60
70050;BMP180;57391;51.306;22.680;2022-10-22T12:25:18;99422.40;;;15.60
70050;BMP180;57391;51.306;22.680;2022-10-22T12:27:55;99419.60;;;15.60
70050;BMP180;57391;51.306;22.680;2022-10-22T12:30:31;99420.80;;;15.60
70050;BMP180;57391;51.306;22.680;2022-10-22T12:33:05;99413.20;;;15.60
70050;BMP180;57391;51.306;22.680;2022-10-22T12:35:45;99411.60;;;15.60
70050;BMP180;57391;51.306;22.680;2022-10-22T12:38:20;99406.80;;;15.60
70050;BMP180;57391;51.306;22.680;2022-10-22T12:40:50;99402.00;;;15.58
70050;BMP180;57391;51.306;22.680;2022-10-22T12:43:38;99402.80;;;15.58
70050;BMP180;57391;51.306;22.680;2022-10-22T12:46:12;99407.00;;;15.58
70050;BMP180;57391;51.306;22.680;2022-10-22T12:48:45;99402.40;;;15.56
70050;BMP180;57391;51.306;22.680;2022-10-22T12:51:17;99403.20;;;15.56
70050;BMP180;57391;51.306;22.680;2022-10-22T12:53:49;99405.00;;;15.56
70050;BMP180;57391;51.306;22.680;2022-10-22T12:56:23;99401.80;;;15.60
70050;BMP180;57391;51.306;22.680;2022-10-22T12:59:01;99397.00;;;15.60
70050;BMP180;57391;51.306;22.680;2022-10-22T13:01:41;99399.80;;;15.60
70050;BMP180;57391;51.306;22.680;2022-10-22T13:09:56;99396.00;;;15.56
70050;BMP180;57391;51.306;22.680;2022-10-22T13:12:35;99398.80;;;15.60
70050;BMP180;57391;51.306;22.680;2022-10-22T13:15:34;99397.80;;;15.52
70050;BMP180;57391;51.306;22.680;2022-10-22T13:21:00;99395.80;;;15.50
70050;BMP180;57391;51.306;22.680;2022-10-22T13:23:32;99398.20;;;15.50
70050;BMP180;57391;51.306;22.680;2022-10-22T13:26:31;99394.80;;;15.50
70050;BMP180;57391;51.306;22.680;2022-10-22T13:29:02;99393.80;;;15.48
70050;BMP180;57391;51.306;22.680;2022-10-22T13:31:35;99387.60;;;15.40
70050;BMP180;57391;51.306;22.680;2022-10-22T13:34:05;99385.60;;;15.40
70050;BMP180;57391;51.306;22.680;2022-10-22T13:36:35;99387.80;;;15.40
70050;BMP180;57391;51.306;22.680;2022-10-22T13:39:05;99383.80;;;15.40
70050;BMP180;57391;51.306;22.680;2022-10-22T13:41:38;99387.40;;;15.40
70050;BMP180;57391;51.306;22.680;2022-10-22T13:44:06;99379.20;;;15.30
70050;BMP180;57391;51.306;22.680;2022-10-22T13:46:37;99371.00;;;15.30
70050;BMP180;57391;51.306;22.680;2022-10-22T13:49:19;99361.20;;;15.20
70050;BMP180;57391;51.306;22.680;2022-10-22T13:51:49;99359.60;;;15.20
70050;BMP180;57391;51.306;22.680;2022-10-22T13:54:23;99359.20;;;15.12
70050;BMP180;57391;51.306;22.680;2022-10-22T13:56:52;99350.20;;;15.10
70050;BMP180;57391;51.306;22.680;2022-10-22T13:59:19;99350.80;;;15.10
70050;BMP180;57391;51.306;22.680;2022-10-22T14:01:47;99353.20;;;15.06
70050;BMP180;57391;51.306;22.680;2022-10-22T14:04:14;99357.00;;;15.00
70050;BMP180;57391;51.306;22.680;2022-10-22T14:06:42;99359.00;;;15.00
70050;BMP180;57391;51.306;22.680;2022-10-22T14:09:14;99357.20;;;15.00
70050;BMP180;57391;51.306;22.680;2022-10-22T14:11:42;99357.40;;;15.00
70050;BMP180;57391;51.306;22.680;2022-10-22T14:14:09;99358.20;;;14.96
70050;BMP180;57391;51.306;22.680;2022-10-22T14:16:39;99367.20;;;14.90
70050;BMP180;57391;51.306;22.680;2022-10-22T14:19:14;99372.20;;;14.90
70050;BMP180;57391;51.306;22.680;2022-10-22T14:21:42;99376.60;;;14.90
70050;BMP180;57391;51.306;22.680;2022-10-22T14:24:10;99375.80;;;14.84
70050;BMP180;57391;51.306;22.680;2022-10-22T14:26:37;99378.40;;;14.80
70050;BMP180;57391;51.306;22.680;2022-10-22T14:29:04;99376.00;;;14.76
70050;BMP180;57391;51.306;22.680;2022-10-22T14:31:32;99381.20;;;14.70
70050;BMP180;57391;51.306;22.680;2022-10-22T14:33:59;99379.60;;;14.60
70050;BMP180;57391;51.306;22.680;2022-10-22T14:36:26;99383.60;;;14.52
70050;BMP180;57391;51.306;22.680;2022-10-22T14:38:54;99391.40;;;14.50
70050;BMP180;57391;51.306;22.680;2022-10-22T14:41:27;99386.20;;;14.40
70050;BMP180;57391;51.306;22.680;2022-10-22T14:43:55;99386.40;;;14.30
70050;BMP180;57391;51.306;22.680;2022-10-22T14:46:22;99388.40;;;14.26
70050;BMP180;57391;51.306;22.680;2022-10-22T14:48:50;99384.20;;;14.20
70050;BMP180;57391;51.306;22.680;2022-10-22T14:51:20;99381.40;;;14.10
70050;BMP180;57391;51.306;22.680;2022-10-22T14:53:47;99383.40;;;14.00
70050;BMP180;57391;51.306;22.680;2022-10-22T14:56:18;99379.60;;;13.90
70050;BMP180;57391;51.306;22.680;2022-10-22T14:58:47;99378.00;;;13.80
70050;BMP180;57391;51.306;22.680;2022-10-22T15:01:15;99384.20;;;13.80
70050;BMP180;57391;51.306;22.680;2022-10-22T15:03:43;99376.20;;;13.70
70050;BMP180;57391;51.306;22.680;2022-10-22T15:06:10;99370.00;;;13.60
70050;BMP180;57391;51.306;22.680;2022-10-22T15:08:38;99370.60;;;13.60
70050;BMP180;57391;51.306;22.680;2022-10-22T15:11:11;99377.60;;;13.50
70050;BMP180;57391;51.306;22.680;2022-10-22T15:13:38;99378.20;;;13.50
70050;BMP180;57391;51.306;22.680;2022-10-22T15:16:10;99379.20;;;13.46
70050;BMP180;57391;51.306;22.680;2022-10-22T15:18:39;99382.20;;;13.40
70050;BMP180;57391;51.306;22.680;2022-10-22T15:21:15;99380.40;;;13.30
70050;BMP180;57391;51.306;22.680;2022-10-22T15:23:42;99386.80;;;13.30
70050;BMP180;57391;51.306;22.680;2022-10-22T15:26:12;99384.80;;;13.30
70050;BMP180;57391;51.306;22.680;2022-10-22T15:28:40;99390.60;;;13.20
70050;BMP180;57391;51.306;22.680;2022-10-22T15:31:12;99390.00;;;13.20
70050;BMP180;57391;51.306;22.680;2022-10-22T15:33:42;99393.60;;;13.20
70050;BMP180;57391;51.306;22.680;2022-10-22T15:36:13;99397.40;;;13.10
70050;BMP180;57391;51.306;22.680;2022-10-22T15:38:41;99394.40;;;13.10
70050;BMP180;57391;51.306;22.680;2022-10-22T15:41:11;99390.40;;;13.00
70050;BMP180;57391;51.306;22.680;2022-10-22T15:43:39;99392.60;;;13.00
70050;BMP180;57391;51.306;22.680;2022-10-22T15:46:16;99390.00;;;13.00
70050;BMP180;57391;51.306;22.680;2022-10-22T15:48:45;99396.40;;;12.92
70050;BMP180;57391;51.306;22.680;2022-10-22T15:51:16;99396.80;;;12.90
70050;BMP180;57391;51.306;22.680;2022-10-22T15:53:53;99400.80;;;12.90
70050;BMP180;57391;51.306;22.680;2022-10-22T15:56:22;99403.40;;;12.84
70050;BMP180;57391;51.306;22.680;2022-10-22T15:58:56;99399.60;;;12.80
70050;BMP180;57391;51.306;22.680;2022-10-22T16:01:25;99402.40;;;12.80
70050;BMP180;57391;51.306;22.680;2022-10-22T16:03:53;99405.00;;;12.80
70050;BMP180;57391;51.306;22.680;2022-10-22T16:06:36;99409.80;;;12.70
70050;BMP180;57391;51.306;22.680;2022-10-22T16:09:08;99409.40;;;12.70
70050;BMP180;57391;51.306;22.680;2022-10-22T16:11:37;99412.60;;;12.70
70050;BMP180;57391;51.306;22.680;2022-10-22T16:14:06;99414.60;;;12.66